Terminal Aerodrome Forecast
Issued by NWS

Home | Current Version | Previous Version | Text Only | Print | Product List | Glossary On
Versions: 1 2 3 4 5 6 7 8 9 10 11 12
000
FTUS44 KEPZ 202329
TAFTCS
TAF
KTCS 202329Z 2100/2124 20009KT P6SM VCTS SCT070CB SCT140 BKN250
      TEMPO 2102/2104 VRB25G40KT 4SM TSRA BKN040CB
     FM210600 30007KT P6SM -SHRA BKN050 BKN140 BKN250
     FM211800 17009KT P6SM VCTS SCT070CB SCT140 BKN250=

USA.gov is the U.S. government's official web portal to all federal, state and local government web resources and services.